sensor_id;sensor_type;location;lat;lon;timestamp;P1;durP1;ratioP1;P2;durP2;ratioP2
41966;SDS011;27656;53.068;8.818;2023-03-21T00:00:14;34.10;;;22.73;;
41966;SDS011;27656;53.068;8.818;2023-03-21T00:02:41;33.43;;;22.27;;
41966;SDS011;27656;53.068;8.818;2023-03-21T00:05:07;31.90;;;22.10;;
41966;SDS011;27656;53.068;8.818;2023-03-21T00:07:41;32.83;;;22.37;;
41966;SDS011;27656;53.068;8.818;2023-03-21T00:10:08;29.87;;;22.17;;
41966;SDS011;27656;53.068;8.818;2023-03-21T00:12:43;30.80;;;21.83;;
41966;SDS011;27656;53.068;8.818;2023-03-21T00:15:10;32.60;;;21.20;;
41966;SDS011;27656;53.068;8.818;2023-03-21T00:17:38;27.70;;;20.23;;
41966;SDS011;27656;53.068;8.818;2023-03-21T00:20:05;27.90;;;21.93;;
41966;SDS011;27656;53.068;8.818;2023-03-21T00:22:34;29.37;;;20.07;;
41966;SDS011;27656;53.068;8.818;2023-03-21T00:25:01;28.23;;;21.63;;
41966;SDS011;27656;53.068;8.818;2023-03-21T00:27:27;32.37;;;21.00;;
41966;SDS011;27656;53.068;8.818;2023-03-21T00:30:14;29.00;;;19.90;;
41966;SDS011;27656;53.068;8.818;2023-03-21T00:32:41;28.77;;;20.93;;
41966;SDS011;27656;53.068;8.818;2023-03-21T00:35:20;28.87;;;20.83;;
41966;SDS011;27656;53.068;8.818;2023-03-21T00:38:07;28.77;;;20.87;;
41966;SDS011;27656;53.068;8.818;2023-03-21T00:40:33;29.30;;;21.13;;
41966;SDS011;27656;53.068;8.818;2023-03-21T00:43:09;30.00;;;20.33;;
41966;SDS011;27656;53.068;8.818;2023-03-21T00:45:37;27.13;;;20.33;;
41966;SDS011;27656;53.068;8.818;2023-03-21T00:48:04;30.27;;;21.00;;
41966;SDS011;27656;53.068;8.818;2023-03-21T00:50:31;27.87;;;19.57;;
41966;SDS011;27656;53.068;8.818;2023-03-21T00:52:57;26.80;;;19.60;;
41966;SDS011;27656;53.068;8.818;2023-03-21T00:55:24;26.87;;;20.40;;
41966;SDS011;27656;53.068;8.818;2023-03-21T00:57:50;26.00;;;19.73;;
41966;SDS011;27656;53.068;8.818;2023-03-21T01:00:26;27.80;;;19.83;;
41966;SDS011;27656;53.068;8.818;2023-03-21T01:02:53;28.43;;;20.30;;
41966;SDS011;27656;53.068;8.818;2023-03-21T01:05:35;27.93;;;19.37;;
41966;SDS011;27656;53.068;8.818;2023-03-21T01:08:22;28.47;;;20.67;;
41966;SDS011;27656;53.068;8.818;2023-03-21T01:11:00;30.20;;;20.17;;
41966;SDS011;27656;53.068;8.818;2023-03-21T01:13:28;30.03;;;20.93;;
41966;SDS011;27656;53.068;8.818;2023-03-21T01:15:55;27.33;;;19.87;;
41966;SDS011;27656;53.068;8.818;2023-03-21T01:18:23;27.60;;;20.00;;
41966;SDS011;27656;53.068;8.818;2023-03-21T01:20:52;25.83;;;18.03;;
41966;SDS011;27656;53.068;8.818;2023-03-21T01:23:19;26.03;;;20.17;;
41966;SDS011;27656;53.068;8.818;2023-03-21T01:25:46;29.87;;;20.10;;
41966;SDS011;27656;53.068;8.818;2023-03-21T01:28:13;29.57;;;20.50;;
41966;SDS011;27656;53.068;8.818;2023-03-21T01:30:47;30.03;;;20.13;;
41966;SDS011;27656;53.068;8.818;2023-03-21T01:33:14;30.50;;;20.60;;
41966;SDS011;27656;53.068;8.818;2023-03-21T01:35:42;27.80;;;20.17;;
41966;SDS011;27656;53.068;8.818;2023-03-21T01:38:20;28.73;;;21.30;;
41966;SDS011;27656;53.068;8.818;2023-03-21T01:40:47;29.90;;;21.93;;
41966;SDS011;27656;53.068;8.818;2023-03-21T01:43:22;27.73;;;21.10;;
41966;SDS011;27656;53.068;8.818;2023-03-21T01:49:11;28.23;;;20.20;;
41966;SDS011;27656;53.068;8.818;2023-03-21T01:51:49;28.17;;;20.33;;
41966;SDS011;27656;53.068;8.818;2023-03-21T01:54:23;32.27;;;21.60;;
41966;SDS011;27656;53.068;8.818;2023-03-21T01:56:52;31.77;;;21.60;;
41966;SDS011;27656;53.068;8.818;2023-03-21T01:59:28;34.87;;;21.90;;
41966;SDS011;27656;53.068;8.818;2023-03-21T02:01:58;33.50;;;22.37;;
41966;SDS011;27656;53.068;8.818;2023-03-21T02:04:26;32.10;;;21.10;;
41966;SDS011;27656;53.068;8.818;2023-03-21T02:06:58;31.70;;;21.77;;
41966;SDS011;27656;53.068;8.818;2023-03-21T02:09:27;32.73;;;22.27;;
41966;SDS011;27656;53.068;8.818;2023-03-21T02:11:57;37.90;;;22.90;;
41966;SDS011;27656;53.068;8.818;2023-03-21T02:14:25;35.00;;;22.33;;
41966;SDS011;27656;53.068;8.818;2023-03-21T02:17:07;31.73;;;22.67;;
41966;SDS011;27656;53.068;8.818;2023-03-21T02:20:15;33.87;;;22.90;;
41966;SDS011;27656;53.068;8.818;2023-03-21T02:22:58;39.10;;;23.07;;
41966;SDS011;27656;53.068;8.818;2023-03-21T02:28:24;35.90;;;24.60;;
41966;SDS011;27656;53.068;8.818;2023-03-21T02:31:04;40.17;;;25.07;;
41966;SDS011;27656;53.068;8.818;2023-03-21T02:37:11;38.07;;;24.63;;
41966;SDS011;27656;53.068;8.818;2023-03-21T02:40:22;43.97;;;26.40;;
41966;SDS011;27656;53.068;8.818;2023-03-21T02:42:59;42.97;;;25.87;;
41966;SDS011;27656;53.068;8.818;2023-03-21T02:45:50;51.27;;;28.13;;
41966;SDS011;27656;53.068;8.818;2023-03-21T02:48:21;51.50;;;26.60;;
41966;SDS011;27656;53.068;8.818;2023-03-21T02:51:15;53.40;;;26.20;;
41966;SDS011;27656;53.068;8.818;2023-03-21T02:53:44;45.77;;;28.00;;
41966;SDS011;27656;53.068;8.818;2023-03-21T02:56:20;44.50;;;26.37;;
41966;SDS011;27656;53.068;8.818;2023-03-21T02:58:47;48.40;;;27.50;;
41966;SDS011;27656;53.068;8.818;2023-03-21T03:01:14;46.50;;;27.07;;
41966;SDS011;27656;53.068;8.818;2023-03-21T03:03:41;50.27;;;27.83;;
41966;SDS011;27656;53.068;8.818;2023-03-21T03:06:16;45.07;;;25.57;;
41966;SDS011;27656;53.068;8.818;2023-03-21T03:11:28;50.40;;;27.83;;
41966;SDS011;27656;53.068;8.818;2023-03-21T03:14:58;49.07;;;28.03;;
41966;SDS011;27656;53.068;8.818;2023-03-21T03:17:24;46.47;;;27.30;;
41966;SDS011;27656;53.068;8.818;2023-03-21T03:22:48;45.60;;;26.37;;
41966;SDS011;27656;53.068;8.818;2023-03-21T03:25:25;44.27;;;26.03;;
41966;SDS011;27656;53.068;8.818;2023-03-21T03:28:07;45.67;;;26.37;;
41966;SDS011;27656;53.068;8.818;2023-03-21T03:30:35;46.77;;;26.93;;
41966;SDS011;27656;53.068;8.818;2023-03-21T03:33:11;42.33;;;25.87;;
41966;SDS011;27656;53.068;8.818;2023-03-21T03:35:42;43.90;;;25.80;;
41966;SDS011;27656;53.068;8.818;2023-03-21T03:38:15;47.33;;;27.50;;
41966;SDS011;27656;53.068;8.818;2023-03-21T03:40:43;49.87;;;26.60;;
41966;SDS011;27656;53.068;8.818;2023-03-21T03:43:15;46.27;;;26.77;;
41966;SDS011;27656;53.068;8.818;2023-03-21T03:45:47;45.40;;;25.43;;
41966;SDS011;27656;53.068;8.818;2023-03-21T03:48:21;46.30;;;27.27;;
41966;SDS011;27656;53.068;8.818;2023-03-21T03:50:52;42.40;;;25.40;;
41966;SDS011;27656;53.068;8.818;2023-03-21T03:53:32;44.73;;;27.00;;
41966;SDS011;27656;53.068;8.818;2023-03-21T03:56:02;47.27;;;26.73;;
41966;SDS011;27656;53.068;8.818;2023-03-21T03:58:29;43.50;;;26.20;;
41966;SDS011;27656;53.068;8.818;2023-03-21T04:01:10;46.33;;;27.10;;
41966;SDS011;27656;53.068;8.818;2023-03-21T04:03:37;51.07;;;27.17;;
41966;SDS011;27656;53.068;8.818;2023-03-21T04:06:15;43.67;;;26.77;;
41966;SDS011;27656;53.068;8.818;2023-03-21T04:08:42;48.73;;;27.83;;
41966;SDS011;27656;53.068;8.818;2023-03-21T04:11:09;47.27;;;27.30;;
41966;SDS011;27656;53.068;8.818;2023-03-21T04:13:39;44.93;;;26.17;;
41966;SDS011;27656;53.068;8.818;2023-03-21T04:16:05;50.17;;;27.77;;
41966;SDS011;27656;53.068;8.818;2023-03-21T04:18:32;50.50;;;27.43;;
41966;SDS011;27656;53.068;8.818;2023-03-21T04:20:58;52.23;;;28.10;;
41966;SDS011;27656;53.068;8.818;2023-03-21T04:23:25;53.67;;;29.13;;
41966;SDS011;27656;53.068;8.818;2023-03-21T04:25:51;59.27;;;28.97;;
41966;SDS011;27656;53.068;8.818;2023-03-21T04:28:22;51.73;;;28.13;;
41966;SDS011;27656;53.068;8.818;2023-03-21T04:30:48;55.33;;;28.97;;
41966;SDS011;27656;53.068;8.818;2023-03-21T04:33:30;59.23;;;28.97;;
41966;SDS011;27656;53.068;8.818;2023-03-21T04:35:56;50.37;;;28.33;;
41966;SDS011;27656;53.068;8.818;2023-03-21T04:38:24;55.97;;;28.77;;
41966;SDS011;27656;53.068;8.818;2023-03-21T04:40:56;56.97;;;29.57;;
41966;SDS011;27656;53.068;8.818;2023-03-21T04:43:22;57.17;;;30.40;;
41966;SDS011;27656;53.068;8.818;2023-03-21T04:45:53;52.27;;;29.70;;
41966;SDS011;27656;53.068;8.818;2023-03-21T04:48:20;58.77;;;29.60;;
41966;SDS011;27656;53.068;8.818;2023-03-21T04:50:49;53.73;;;29.10;;
41966;SDS011;27656;53.068;8.818;2023-03-21T04:53:16;58.73;;;28.83;;
41966;SDS011;27656;53.068;8.818;2023-03-21T04:55:43;51.40;;;28.50;;
41966;SDS011;27656;53.068;8.818;2023-03-21T04:58:10;58.63;;;29.37;;
41966;SDS011;27656;53.068;8.818;2023-03-21T05:00:37;58.63;;;29.67;;
41966;SDS011;27656;53.068;8.818;2023-03-21T05:03:04;53.83;;;28.47;;
41966;SDS011;27656;53.068;8.818;2023-03-21T05:05:37;58.10;;;28.40;;
41966;SDS011;27656;53.068;8.818;2023-03-21T05:08:04;56.67;;;28.17;;
41966;SDS011;27656;53.068;8.818;2023-03-21T05:10:31;57.27;;;27.70;;
41966;SDS011;27656;53.068;8.818;2023-03-21T05:12:58;58.50;;;28.67;;
41966;SDS011;27656;53.068;8.818;2023-03-21T05:15:24;54.63;;;28.27;;
41966;SDS011;27656;53.068;8.818;2023-03-21T05:17:51;63.03;;;28.07;;
41966;SDS011;27656;53.068;8.818;2023-03-21T05:20:17;58.57;;;27.27;;
41966;SDS011;27656;53.068;8.818;2023-03-21T05:22:44;58.30;;;28.77;;
41966;SDS011;27656;53.068;8.818;2023-03-21T05:25:11;53.90;;;27.07;;
41966;SDS011;27656;53.068;8.818;2023-03-21T05:27:38;63.23;;;27.73;;
41966;SDS011;27656;53.068;8.818;2023-03-21T05:30:15;52.03;;;27.00;;
41966;SDS011;27656;53.068;8.818;2023-03-21T05:32:42;57.53;;;27.30;;
41966;SDS011;27656;53.068;8.818;2023-03-21T05:35:08;49.93;;;26.83;;
41966;SDS011;27656;53.068;8.818;2023-03-21T05:37:35;48.93;;;25.80;;
41966;SDS011;27656;53.068;8.818;2023-03-21T05:40:01;49.73;;;26.17;;
41966;SDS011;27656;53.068;8.818;2023-03-21T05:42:31;57.33;;;26.23;;
41966;SDS011;27656;53.068;8.818;2023-03-21T05:44:57;47.50;;;25.53;;
41966;SDS011;27656;53.068;8.818;2023-03-21T05:47:24;52.27;;;25.77;;
41966;SDS011;27656;53.068;8.818;2023-03-21T05:49:50;53.80;;;26.17;;
41966;SDS011;27656;53.068;8.818;2023-03-21T05:52:17;51.27;;;25.23;;
41966;SDS011;27656;53.068;8.818;2023-03-21T05:54:43;55.33;;;25.63;;
41966;SDS011;27656;53.068;8.818;2023-03-21T05:57:10;54.97;;;25.17;;
41966;SDS011;27656;53.068;8.818;2023-03-21T05:59:36;50.80;;;23.73;;
41966;SDS011;27656;53.068;8.818;2023-03-21T06:02:03;49.80;;;25.30;;
41966;SDS011;27656;53.068;8.818;2023-03-21T06:04:29;50.03;;;25.37;;
41966;SDS011;27656;53.068;8.818;2023-03-21T06:06:56;54.83;;;25.23;;
41966;SDS011;27656;53.068;8.818;2023-03-21T06:09:23;56.23;;;24.33;;
41966;SDS011;27656;53.068;8.818;2023-03-21T06:11:50;49.20;;;24.87;;
41966;SDS011;27656;53.068;8.818;2023-03-21T06:14:18;54.30;;;25.37;;
41966;SDS011;27656;53.068;8.818;2023-03-21T06:16:45;49.60;;;25.30;;
41966;SDS011;27656;53.068;8.818;2023-03-21T06:19:12;49.47;;;24.73;;
41966;SDS011;27656;53.068;8.818;2023-03-21T06:21:38;50.77;;;26.03;;
41966;SDS011;27656;53.068;8.818;2023-03-21T06:24:05;46.47;;;23.87;;
41966;SDS011;27656;53.068;8.818;2023-03-21T06:26:31;51.90;;;24.90;;
41966;SDS011;27656;53.068;8.818;2023-03-21T06:28:58;49.90;;;24.67;;
41966;SDS011;27656;53.068;8.818;2023-03-21T06:31:24;46.13;;;23.70;;
41966;SDS011;27656;53.068;8.818;2023-03-21T06:33:51;47.53;;;23.77;;
41966;SDS011;27656;53.068;8.818;2023-03-21T06:36:18;53.87;;;23.77;;
41966;SDS011;27656;53.068;8.818;2023-03-21T06:38:44;42.73;;;24.00;;
41966;SDS011;27656;53.068;8.818;2023-03-21T06:41:12;47.87;;;23.43;;
41966;SDS011;27656;53.068;8.818;2023-03-21T06:43:38;41.93;;;22.23;;
41966;SDS011;27656;53.068;8.818;2023-03-21T06:46:05;42.63;;;22.43;;
41966;SDS011;27656;53.068;8.818;2023-03-21T06:48:31;46.27;;;23.33;;
41966;SDS011;27656;53.068;8.818;2023-03-21T06:50:58;41.83;;;22.70;;
41966;SDS011;27656;53.068;8.818;2023-03-21T06:53:24;49.07;;;23.50;;
41966;SDS011;27656;53.068;8.818;2023-03-21T06:55:55;40.90;;;21.37;;
41966;SDS011;27656;53.068;8.818;2023-03-21T06:58:21;42.13;;;21.10;;
41966;SDS011;27656;53.068;8.818;2023-03-21T07:00:48;36.87;;;21.33;;
41966;SDS011;27656;53.068;8.818;2023-03-21T07:03:15;38.53;;;22.90;;
41966;SDS011;27656;53.068;8.818;2023-03-21T07:05:41;37.70;;;21.90;;
41966;SDS011;27656;53.068;8.818;2023-03-21T07:08:08;38.43;;;21.63;;
41966;SDS011;27656;53.068;8.818;2023-03-21T07:10:38;40.80;;;22.40;;
41966;SDS011;27656;53.068;8.818;2023-03-21T07:13:05;40.77;;;21.57;;
41966;SDS011;27656;53.068;8.818;2023-03-21T07:15:31;36.57;;;20.93;;
41966;SDS011;27656;53.068;8.818;2023-03-21T07:18:00;39.07;;;21.03;;
41966;SDS011;27656;53.068;8.818;2023-03-21T07:20:26;39.30;;;21.40;;
41966;SDS011;27656;53.068;8.818;2023-03-21T07:22:53;41.70;;;20.87;;
41966;SDS011;27656;53.068;8.818;2023-03-21T07:25:19;39.77;;;19.60;;
41966;SDS011;27656;53.068;8.818;2023-03-21T07:27:45;39.13;;;20.87;;
41966;SDS011;27656;53.068;8.818;2023-03-21T07:30:12;39.60;;;21.07;;
41966;SDS011;27656;53.068;8.818;2023-03-21T07:32:39;42.13;;;20.73;;
41966;SDS011;27656;53.068;8.818;2023-03-21T07:35:09;33.47;;;20.13;;
41966;SDS011;27656;53.068;8.818;2023-03-21T07:37:38;35.63;;;19.67;;
41966;SDS011;27656;53.068;8.818;2023-03-21T07:40:05;34.13;;;18.87;;
41966;SDS011;27656;53.068;8.818;2023-03-21T07:42:35;32.33;;;19.17;;
41966;SDS011;27656;53.068;8.818;2023-03-21T07:45:03;34.37;;;19.87;;
41966;SDS011;27656;53.068;8.818;2023-03-21T07:47:30;33.13;;;19.73;;
41966;SDS011;27656;53.068;8.818;2023-03-21T07:49:57;32.73;;;19.43;;
41966;SDS011;27656;53.068;8.818;2023-03-21T07:52:24;32.20;;;19.00;;
41966;SDS011;27656;53.068;8.818;2023-03-21T07:54:50;32.50;;;19.60;;
41966;SDS011;27656;53.068;8.818;2023-03-21T07:57:17;30.00;;;19.27;;
41966;SDS011;27656;53.068;8.818;2023-03-21T07:59:43;37.67;;;20.90;;
41966;SDS011;27656;53.068;8.818;2023-03-21T08:02:13;30.57;;;19.13;;
41966;SDS011;27656;53.068;8.818;2023-03-21T08:04:41;30.23;;;19.97;;
41966;SDS011;27656;53.068;8.818;2023-03-21T08:07:07;33.03;;;19.13;;
41966;SDS011;27656;53.068;8.818;2023-03-21T08:09:34;31.97;;;18.40;;
41966;SDS011;27656;53.068;8.818;2023-03-21T08:12:01;31.63;;;19.20;;
41966;SDS011;27656;53.068;8.818;2023-03-21T08:14:28;31.53;;;17.97;;
41966;SDS011;27656;53.068;8.818;2023-03-21T08:16:55;28.27;;;18.53;;
41966;SDS011;27656;53.068;8.818;2023-03-21T08:19:21;29.90;;;19.60;;
41966;SDS011;27656;53.068;8.818;2023-03-21T08:21:48;29.30;;;18.00;;
41966;SDS011;27656;53.068;8.818;2023-03-21T08:24:14;30.83;;;19.20;;
41966;SDS011;27656;53.068;8.818;2023-03-21T08:26:41;35.23;;;20.83;;
41966;SDS011;27656;53.068;8.818;2023-03-21T08:29:09;33.60;;;20.17;;
41966;SDS011;27656;53.068;8.818;2023-03-21T08:31:36;30.60;;;18.77;;
41966;SDS011;27656;53.068;8.818;2023-03-21T08:34:02;35.43;;;20.23;;
41966;SDS011;27656;53.068;8.818;2023-03-21T08:36:29;29.57;;;18.57;;
41966;SDS011;27656;53.068;8.818;2023-03-21T08:38:56;31.07;;;19.10;;
41966;SDS011;27656;53.068;8.818;2023-03-21T08:41:33;27.93;;;19.17;;
41966;SDS011;27656;53.068;8.818;2023-03-21T08:44:02;28.10;;;18.97;;
41966;SDS011;27656;53.068;8.818;2023-03-21T08:46:29;27.17;;;19.10;;
41966;SDS011;27656;53.068;8.818;2023-03-21T08:48:56;32.07;;;17.37;;
41966;SDS011;27656;53.068;8.818;2023-03-21T08:51:23;26.27;;;17.33;;
41966;SDS011;27656;53.068;8.818;2023-03-21T08:53:49;29.67;;;17.93;;
41966;SDS011;27656;53.068;8.818;2023-03-21T08:56:16;26.23;;;17.10;;
41966;SDS011;27656;53.068;8.818;2023-03-21T08:58:43;29.77;;;18.27;;
41966;SDS011;27656;53.068;8.818;2023-03-21T09:01:09;27.53;;;17.77;;
41966;SDS011;27656;53.068;8.818;2023-03-21T09:03:41;29.57;;;17.27;;
41966;SDS011;27656;53.068;8.818;2023-03-21T09:06:08;29.80;;;16.90;;
41966;SDS011;27656;53.068;8.818;2023-03-21T09:08:39;26.50;;;15.67;;
41966;SDS011;27656;53.068;8.818;2023-03-21T09:11:07;90.87;;;27.87;;
41966;SDS011;27656;53.068;8.818;2023-03-21T09:13:34;57.10;;;29.00;;
41966;SDS011;27656;53.068;8.818;2023-03-21T09:16:01;31.43;;;18.73;;
41966;SDS011;27656;53.068;8.818;2023-03-21T09:18:28;54.37;;;26.13;;
41966;SDS011;27656;53.068;8.818;2023-03-21T09:21:14;29.20;;;16.60;;
41966;SDS011;27656;53.068;8.818;2023-03-21T09:23:42;42.67;;;21.37;;
41966;SDS011;27656;53.068;8.818;2023-03-21T09:26:12;59.27;;;27.23;;
41966;SDS011;27656;53.068;8.818;2023-03-21T09:28:38;90.87;;;33.23;;
41966;SDS011;27656;53.068;8.818;2023-03-21T09:31:06;161.10;;;50.10;;
41966;SDS011;27656;53.068;8.818;2023-03-21T09:33:37;49.97;;;22.60;;
41966;SDS011;27656;53.068;8.818;2023-03-21T09:36:06;21.93;;;14.37;;
41966;SDS011;27656;53.068;8.818;2023-03-21T09:38:39;82.97;;;32.80;;
41966;SDS011;27656;53.068;8.818;2023-03-21T09:44:13;40.53;;;18.10;;
41966;SDS011;27656;53.068;8.818;2023-03-21T09:49:47;22.23;;;13.43;;
41966;SDS011;27656;53.068;8.818;2023-03-21T09:52:21;25.30;;;13.03;;
41966;SDS011;27656;53.068;8.818;2023-03-21T09:54:51;55.17;;;22.83;;
41966;SDS011;27656;53.068;8.818;2023-03-21T09:57:38;28.53;;;14.90;;
41966;SDS011;27656;53.068;8.818;2023-03-21T10:00:09;22.97;;;13.47;;
41966;SDS011;27656;53.068;8.818;2023-03-21T10:02:48;22.77;;;14.43;;
41966;SDS011;27656;53.068;8.818;2023-03-21T10:05:22;24.83;;;14.90;;
41966;SDS011;27656;53.068;8.818;2023-03-21T10:07:57;24.60;;;12.73;;
41966;SDS011;27656;53.068;8.818;2023-03-21T10:10:31;21.00;;;13.50;;
41966;SDS011;27656;53.068;8.818;2023-03-21T10:13:05;21.30;;;13.40;;
41966;SDS011;27656;53.068;8.818;2023-03-21T10:15:39;22.23;;;13.67;;
41966;SDS011;27656;53.068;8.818;2023-03-21T10:18:06;23.07;;;13.70;;
41966;SDS011;27656;53.068;8.818;2023-03-21T10:20:34;26.80;;;13.50;;
41966;SDS011;27656;53.068;8.818;2023-03-21T10:23:03;32.77;;;16.20;;
41966;SDS011;27656;53.068;8.818;2023-03-21T10:25:33;24.40;;;14.00;;
41966;SDS011;27656;53.068;8.818;2023-03-21T10:28:05;27.30;;;14.50;;
41966;SDS011;27656;53.068;8.818;2023-03-21T10:30:40;27.43;;;14.43;;
41966;SDS011;27656;53.068;8.818;2023-03-21T10:33:13;22.97;;;13.60;;
41966;SDS011;27656;53.068;8.818;2023-03-21T10:35:43;21.20;;;13.13;;
41966;SDS011;27656;53.068;8.818;2023-03-21T10:38:13;18.60;;;12.10;;
41966;SDS011;27656;53.068;8.818;2023-03-21T10:40:41;18.70;;;11.87;;
41966;SDS011;27656;53.068;8.818;2023-03-21T10:43:15;17.17;;;11.27;;
41966;SDS011;27656;53.068;8.818;2023-03-21T10:45:55;17.10;;;11.23;;
41966;SDS011;27656;53.068;8.818;2023-03-21T10:48:22;20.33;;;12.17;;
41966;SDS011;27656;53.068;8.818;2023-03-21T10:50:51;18.83;;;11.20;;
41966;SDS011;27656;53.068;8.818;2023-03-21T10:53:21;15.40;;;11.03;;
41966;SDS011;27656;53.068;8.818;2023-03-21T10:55:54;20.30;;;11.27;;
41966;SDS011;27656;53.068;8.818;2023-03-21T10:58:24;15.07;;;10.67;;
41966;SDS011;27656;53.068;8.818;2023-03-21T11:00:53;17.57;;;10.87;;
41966;SDS011;27656;53.068;8.818;2023-03-21T11:06:05;16.83;;;11.93;;
41966;SDS011;27656;53.068;8.818;2023-03-21T11:08:37;21.70;;;12.97;;
41966;SDS011;27656;53.068;8.818;2023-03-21T11:11:06;21.27;;;12.37;;
41966;SDS011;27656;53.068;8.818;2023-03-21T11:13:36;16.87;;;10.50;;
41966;SDS011;27656;53.068;8.818;2023-03-21T11:16:12;17.50;;;11.70;;
41966;SDS011;27656;53.068;8.818;2023-03-21T11:18:47;16.97;;;10.37;;
41966;SDS011;27656;53.068;8.818;2023-03-21T11:21:15;22.20;;;12.63;;
41966;SDS011;27656;53.068;8.818;2023-03-21T11:23:43;15.30;;;11.30;;
41966;SDS011;27656;53.068;8.818;2023-03-21T11:26:18;17.27;;;11.10;;
41966;SDS011;27656;53.068;8.818;2023-03-21T11:28:49;14.63;;;10.43;;
41966;SDS011;27656;53.068;8.818;2023-03-21T11:31:19;15.43;;;10.33;;
41966;SDS011;27656;53.068;8.818;2023-03-21T11:33:53;14.63;;;10.80;;
41966;SDS011;27656;53.068;8.818;2023-03-21T11:38:49;14.67;;;11.03;;
41966;SDS011;27656;53.068;8.818;2023-03-21T11:41:30;17.43;;;11.40;;
41966;SDS011;27656;53.068;8.818;2023-03-21T11:43:59;14.30;;;10.40;;
41966;SDS011;27656;53.068;8.818;2023-03-21T11:46:29;13.60;;;9.80;;
41966;SDS011;27656;53.068;8.818;2023-03-21T11:48:58;18.03;;;10.53;;
41966;SDS011;27656;53.068;8.818;2023-03-21T11:51:41;14.17;;;10.40;;
41966;SDS011;27656;53.068;8.818;2023-03-21T11:54:32;15.63;;;10.27;;
41966;SDS011;27656;53.068;8.818;2023-03-21T12:05:27;17.27;;;10.80;;
41966;SDS011;27656;53.068;8.818;2023-03-21T12:08:21;16.63;;;10.93;;
41966;SDS011;27656;53.068;8.818;2023-03-21T12:10:52;16.93;;;11.73;;
41966;SDS011;27656;53.068;8.818;2023-03-21T12:24:19;21.93;;;14.40;;
41966;SDS011;27656;53.068;8.818;2023-03-21T12:26:55;22.57;;;14.00;;
41966;SDS011;27656;53.068;8.818;2023-03-21T12:29:35;21.60;;;13.13;;
41966;SDS011;27656;53.068;8.818;2023-03-21T12:35:06;23.40;;;15.07;;
41966;SDS011;27656;53.068;8.818;2023-03-21T12:37:52;22.50;;;16.17;;
41966;SDS011;27656;53.068;8.818;2023-03-21T12:40:38;22.33;;;13.97;;
41966;SDS011;27656;53.068;8.818;2023-03-21T12:43:17;21.97;;;15.03;;
41966;SDS011;27656;53.068;8.818;2023-03-21T12:51:32;21.70;;;15.03;;
41966;SDS011;27656;53.068;8.818;2023-03-21T12:56:32;22.37;;;15.40;;
41966;SDS011;27656;53.068;8.818;2023-03-21T12:59:18;20.20;;;15.37;;
41966;SDS011;27656;53.068;8.818;2023-03-21T13:01:49;22.90;;;15.10;;
41966;SDS011;27656;53.068;8.818;2023-03-21T13:04:35;25.07;;;15.40;;
41966;SDS011;27656;53.068;8.818;2023-03-21T13:07:07;25.10;;;15.87;;
41966;SDS011;27656;53.068;8.818;2023-03-21T13:09:37;24.40;;;15.70;;
41966;SDS011;27656;53.068;8.818;2023-03-21T13:12:08;20.03;;;14.63;;
41966;SDS011;27656;53.068;8.818;2023-03-21T13:14:55;22.57;;;14.77;;
41966;SDS011;27656;53.068;8.818;2023-03-21T13:17:31;22.17;;;15.37;;
41966;SDS011;27656;53.068;8.818;2023-03-21T13:20:12;19.53;;;14.40;;
41966;SDS011;27656;53.068;8.818;2023-03-21T13:22:45;21.47;;;14.43;;
41966;SDS011;27656;53.068;8.818;2023-03-21T13:25:18;19.13;;;13.30;;
41966;SDS011;27656;53.068;8.818;2023-03-21T13:30:27;24.27;;;14.67;;
41966;SDS011;27656;53.068;8.818;2023-03-21T13:33:04;18.50;;;14.10;;
41966;SDS011;27656;53.068;8.818;2023-03-21T13:35:34;17.53;;;13.37;;
41966;SDS011;27656;53.068;8.818;2023-03-21T13:38:04;21.83;;;13.43;;
41966;SDS011;27656;53.068;8.818;2023-03-21T13:46:10;19.07;;;13.17;;
41966;SDS011;27656;53.068;8.818;2023-03-21T13:54:01;15.60;;;10.50;;
41966;SDS011;27656;53.068;8.818;2023-03-21T13:56:50;17.20;;;10.80;;
41966;SDS011;27656;53.068;8.818;2023-03-21T13:59:34;14.73;;;10.37;;
41966;SDS011;27656;53.068;8.818;2023-03-21T14:02:11;14.83;;;11.03;;
41966;SDS011;27656;53.068;8.818;2023-03-21T14:04:52;15.87;;;11.60;;
41966;SDS011;27656;53.068;8.818;2023-03-21T14:07:32;18.17;;;11.63;;
41966;SDS011;27656;53.068;8.818;2023-03-21T14:10:01;17.10;;;11.37;;
41966;SDS011;27656;53.068;8.818;2023-03-21T14:12:39;15.27;;;11.73;;
41966;SDS011;27656;53.068;8.818;2023-03-21T14:15:07;16.63;;;12.53;;
41966;SDS011;27656;53.068;8.818;2023-03-21T14:17:50;18.97;;;12.63;;
41966;SDS011;27656;53.068;8.818;2023-03-21T14:20:26;19.07;;;12.20;;
41966;SDS011;27656;53.068;8.818;2023-03-21T14:22:56;17.10;;;12.10;;
41966;SDS011;27656;53.068;8.818;2023-03-21T14:25:24;16.23;;;12.13;;
41966;SDS011;27656;53.068;8.818;2023-03-21T14:28:03;17.17;;;12.40;;
41966;SDS011;27656;53.068;8.818;2023-03-21T14:30:36;16.97;;;12.10;;
41966;SDS011;27656;53.068;8.818;2023-03-21T14:33:27;16.90;;;12.67;;
41966;SDS011;27656;53.068;8.818;2023-03-21T14:35:57;20.73;;;13.23;;
41966;SDS011;27656;53.068;8.818;2023-03-21T14:38:33;16.20;;;13.73;;
41966;SDS011;27656;53.068;8.818;2023-03-21T14:41:03;22.97;;;14.00;;
41966;SDS011;27656;53.068;8.818;2023-03-21T14:43:31;22.13;;;14.63;;
41966;SDS011;27656;53.068;8.818;2023-03-21T14:45:59;21.70;;;14.03;;
41966;SDS011;27656;53.068;8.818;2023-03-21T14:48:30;19.93;;;14.93;;
41966;SDS011;27656;53.068;8.818;2023-03-21T14:51:05;23.33;;;16.20;;
41966;SDS011;27656;53.068;8.818;2023-03-21T14:53:35;22.73;;;15.50;;
41966;SDS011;27656;53.068;8.818;2023-03-21T14:56:16;20.47;;;15.73;;
41966;SDS011;27656;53.068;8.818;2023-03-21T14:58:47;19.93;;;15.50;;
41966;SDS011;27656;53.068;8.818;2023-03-21T15:01:27;21.50;;;14.70;;
41966;SDS011;27656;53.068;8.818;2023-03-21T15:03:56;20.87;;;14.83;;
41966;SDS011;27656;53.068;8.818;2023-03-21T15:06:25;19.43;;;15.20;;
41966;SDS011;27656;53.068;8.818;2023-03-21T15:08:59;19.27;;;14.63;;
41966;SDS011;27656;53.068;8.818;2023-03-21T15:11:28;18.93;;;15.10;;
41966;SDS011;27656;53.068;8.818;2023-03-21T15:14:08;18.20;;;14.17;;
41966;SDS011;27656;53.068;8.818;2023-03-21T15:16:37;20.60;;;14.37;;
41966;SDS011;27656;53.068;8.818;2023-03-21T15:19:04;19.70;;;13.13;;
41966;SDS011;27656;53.068;8.818;2023-03-21T15:21:33;18.67;;;13.37;;
41966;SDS011;27656;53.068;8.818;2023-03-21T15:24:04;20.63;;;14.40;;
41966;SDS011;27656;53.068;8.818;2023-03-21T15:26:38;21.77;;;14.00;;
41966;SDS011;27656;53.068;8.818;2023-03-21T15:29:05;19.77;;;14.47;;
41966;SDS011;27656;53.068;8.818;2023-03-21T15:31:35;17.53;;;13.70;;
41966;SDS011;27656;53.068;8.818;2023-03-21T15:34:04;22.33;;;14.67;;
41966;SDS011;27656;53.068;8.818;2023-03-21T15:36:35;16.63;;;13.47;;
41966;SDS011;27656;53.068;8.818;2023-03-21T15:39:04;18.00;;;12.97;;
41966;SDS011;27656;53.068;8.818;2023-03-21T15:41:32;18.40;;;12.93;;
41966;SDS011;27656;53.068;8.818;2023-03-21T15:46:46;21.53;;;13.83;;
41966;SDS011;27656;53.068;8.818;2023-03-21T15:51:41;19.83;;;12.73;;
41966;SDS011;27656;53.068;8.818;2023-03-21T15:54:14;18.90;;;11.87;;
41966;SDS011;27656;53.068;8.818;2023-03-21T15:56:45;17.80;;;12.17;;
41966;SDS011;27656;53.068;8.818;2023-03-21T15:59:13;17.03;;;11.90;;